createdAt,value
2018-04-30T00:01:53.298Z,2.36
2018-04-30T00:07:44.172Z,2.72
2018-04-30T00:13:35.011Z,2.23
2018-04-30T00:19:25.899Z,2.1
2018-04-30T00:25:16.721Z,2.35
2018-04-30T00:31:07.546Z,2.2
2018-04-30T00:36:58.394Z,2.43
2018-04-30T00:42:49.294Z,2.26
2018-04-30T00:48:40.111Z,2.58
2018-04-30T00:54:30.901Z,2.43
2018-04-30T01:00:21.771Z,2.58
2018-04-30T01:06:12.631Z,2.28
2018-04-30T01:12:03.468Z,2.44
2018-04-30T01:17:54.362Z,2.89
2018-04-30T01:23:45.183Z,2.99
2018-04-30T01:29:36.026Z,3.34
2018-04-30T01:35:26.864Z,2.74
2018-04-30T01:41:17.705Z,2.45
2018-04-30T01:47:08.547Z,3.39
2018-04-30T01:52:59.372Z,2.55
2018-04-30T01:58:50.215Z,2.78
2018-04-30T02:04:41.058Z,2.24
2018-04-30T02:10:31.900Z,2.7
2018-04-30T02:16:22.797Z,2.78
2018-04-30T02:22:13.595Z,2.88
2018-04-30T02:28:04.489Z,2.97
2018-04-30T02:33:55.271Z,2.79
2018-04-30T02:39:46.171Z,3.07
2018-04-30T02:45:36.926Z,2.85
2018-04-30T02:51:27.819Z,2.8
2018-04-30T02:57:18.635Z,3.12
2018-04-30T03:03:09.484Z,3.34
2018-04-30T03:09:00.358Z,2.92
2018-04-30T03:14:51.187Z,3.04
2018-04-30T03:20:41.989Z,3.55
2018-04-30T03:26:32.855Z,3.37
2018-04-30T03:32:23.723Z,3.9
2018-04-30T03:38:14.528Z,3.39
2018-04-30T03:44:05.605Z,7.31
2018-04-30T03:49:56.175Z,6.09
2018-04-30T03:55:47.078Z,4.33
2018-04-30T04:01:37.870Z,5.04
2018-04-30T04:07:28.735Z,6.22
2018-04-30T04:13:19.624Z,4.89
2018-04-30T04:19:10.477Z,3.63
2018-04-30T04:25:01.221Z,3.59
2018-04-30T04:30:52.102Z,2.96
2018-04-30T04:36:42.873Z,3.77
2018-04-30T04:42:33.800Z,3.87
2018-04-30T04:48:24.570Z,4.45
2018-04-30T04:54:15.385Z,5.15
2018-04-30T05:00:06.238Z,3.87
2018-04-30T05:05:57.079Z,3.65
2018-04-30T05:11:47.877Z,3.4
2018-04-30T05:17:38.734Z,3.45
2018-04-30T05:23:29.586Z,3.52
2018-04-30T05:29:20.424Z,2.8
2018-04-30T05:35:11.217Z,3.04
2018-04-30T05:41:02.088Z,4.7
2018-04-30T05:46:52.924Z,3.58
2018-04-30T05:52:43.742Z,3.14
2018-04-30T05:58:34.629Z,2.66
2018-04-30T06:04:25.397Z,2.79
2018-04-30T06:10:16.222Z,3.03
2018-04-30T06:16:07.088Z,3.02
2018-04-30T06:21:57.949Z,3.47
2018-04-30T06:27:48.729Z,2.79
2018-04-30T06:33:39.614Z,3.1
2018-04-30T06:39:30.463Z,2.18
2018-04-30T06:45:21.306Z,2.8
2018-04-30T06:51:12.131Z,1.9
2018-04-30T06:57:02.966Z,1.93
2018-04-30T07:02:53.799Z,1.89
2018-04-30T07:08:44.694Z,2.24
2018-04-30T07:14:35.511Z,1.96
2018-04-30T07:20:26.347Z,1.61
2018-04-30T07:26:17.199Z,2.08
2018-04-30T07:32:08.102Z,2.15
2018-04-30T07:37:58.897Z,1.7
2018-04-30T07:43:49.789Z,1.98
2018-04-30T07:49:40.629Z,2.22
2018-04-30T07:55:31.444Z,1.68
2018-04-30T08:01:22.362Z,1.61
2018-04-30T08:07:13.179Z,1.56
2018-04-30T08:13:04.044Z,1.88
2018-04-30T08:18:54.931Z,1.69
2018-04-30T08:24:45.831Z,1.65
2018-04-30T08:30:36.720Z,2.07
2018-04-30T08:36:27.517Z,1.74
2018-04-30T08:42:18.449Z,2.44
2018-04-30T08:48:09.274Z,1.89
2018-04-30T08:54:00.116Z,1.82
2018-04-30T08:59:51.026Z,1.59
2018-04-30T09:05:41.962Z,1.29
2018-04-30T09:11:32.845Z,1.31
2018-04-30T09:17:23.654Z,1.42
2018-04-30T09:23:14.555Z,1.16
2018-04-30T09:29:05.427Z,1.56
2018-04-30T09:34:56.303Z,2.68
2018-04-30T09:40:47.214Z,1.44
2018-04-30T09:46:38.090Z,1.7
2018-04-30T09:52:28.962Z,8.21
2018-04-30T09:58:19.860Z,2.76
2018-04-30T10:04:10.762Z,2.05
2018-04-30T10:10:01.675Z,3.08
2018-04-30T10:15:52.512Z,4.04
2018-04-30T10:21:43.418Z,2.29
2018-04-30T10:27:34.335Z,4.04
2018-04-30T10:33:25.265Z,6.51
2018-04-30T10:39:16.104Z,2.14
2018-04-30T10:45:07.010Z,2.12
2018-04-30T10:50:57.927Z,2.08
2018-04-30T10:56:48.810Z,2.35
2018-04-30T11:02:39.804Z,1.99
2018-04-30T11:08:30.619Z,1.96
2018-04-30T11:14:21.520Z,2.11
2018-04-30T11:20:12.392Z,1.88
2018-04-30T11:26:03.295Z,1.94
2018-04-30T11:31:54.242Z,2.32
2018-04-30T11:37:45.140Z,1.66
2018-04-30T11:43:35.979Z,1.81
2018-04-30T11:49:26.797Z,2.04
2018-04-30T11:55:17.622Z,1.56
2018-04-30T12:01:08.464Z,2.03
2018-04-30T12:06:59.278Z,1.84
2018-04-30T12:12:50.115Z,2.23
2018-04-30T12:18:40.964Z,1.95
2018-04-30T12:24:31.791Z,2.24
2018-04-30T12:30:22.591Z,1.62
2018-04-30T12:36:13.549Z,2.36
2018-04-30T12:42:04.395Z,1.84
2018-04-30T12:47:55.352Z,2.12
2018-04-30T12:53:46.165Z,1.61
2018-04-30T12:59:36.986Z,1.92
2018-04-30T13:05:27.933Z,2.54
2018-04-30T13:11:18.745Z,1.6
2018-04-30T13:17:09.625Z,2.35
2018-04-30T13:23:00.512Z,1.99
2018-04-30T13:28:51.365Z,1.49
2018-04-30T13:34:42.249Z,2.85
2018-04-30T13:40:33.148Z,1.33
2018-04-30T13:46:23.894Z,1.6
2018-04-30T13:52:14.816Z,1.71
2018-04-30T13:58:05.770Z,1.75
2018-04-30T14:03:56.741Z,1.77
2018-04-30T14:09:47.575Z,2.5
2018-04-30T14:15:38.396Z,1.56
2018-04-30T14:21:29.278Z,1.33
2018-04-30T14:27:20.039Z,1.8
2018-04-30T14:33:10.870Z,1.73
2018-04-30T14:39:01.695Z,1.77
2018-04-30T14:44:52.591Z,2.04
2018-04-30T14:50:43.443Z,1.49
2018-04-30T14:56:34.278Z,1.81
2018-04-30T15:02:25.186Z,1.89
2018-04-30T15:08:16.024Z,1.67
2018-04-30T15:14:06.809Z,1.69
2018-04-30T15:19:57.632Z,2.09
2018-04-30T15:25:48.470Z,1.8
2018-04-30T15:31:39.317Z,2.24
2018-04-30T15:37:30.103Z,1.92
2018-04-30T15:43:20.963Z,1.9
2018-04-30T15:49:11.892Z,2.17
2018-04-30T15:55:02.596Z,1.5
2018-04-30T16:00:53.489Z,2.43
2018-04-30T16:06:44.334Z,1.76
2018-04-30T16:12:35.316Z,1.7
2018-04-30T16:18:26.189Z,1.48
2018-04-30T16:24:17.112Z,1.6
2018-04-30T16:30:08.007Z,1.55
2018-04-30T16:35:58.895Z,2.09
2018-04-30T16:41:49.847Z,1.52
2018-04-30T16:47:40.763Z,1.77
2018-04-30T16:53:31.630Z,2.07
2018-04-30T16:59:22.538Z,1.87
2018-04-30T17:05:13.451Z,2.82
2018-04-30T17:11:04.323Z,1.9
2018-04-30T17:16:55.199Z,2.57
2018-04-30T17:22:46.140Z,2.28
2018-04-30T17:28:36.994Z,1.69
2018-04-30T17:34:27.883Z,2.73
2018-04-30T17:40:18.764Z,2.78
2018-04-30T17:46:09.640Z,2.12
2018-04-30T17:52:00.583Z,3.05
2018-04-30T17:57:51.371Z,3.37
2018-04-30T18:03:42.268Z,3.73
2018-04-30T18:09:33.144Z,2.51
2018-04-30T18:15:23.988Z,2.51
2018-04-30T18:21:14.898Z,2.84
2018-04-30T18:27:05.724Z,2.96
2018-04-30T18:32:56.657Z,3.13
2018-04-30T18:38:47.581Z,2.91
2018-04-30T18:44:38.410Z,3.5
2018-04-30T18:50:29.247Z,2.79
2018-04-30T18:56:20.050Z,2.92
2018-04-30T19:02:10.970Z,2.84
2018-04-30T19:08:01.847Z,3.12
2018-04-30T19:13:52.633Z,3.81
2018-04-30T19:19:43.480Z,4.6
2018-04-30T19:25:34.313Z,3.95
2018-04-30T19:31:25.188Z,4.71
2018-04-30T19:37:16.058Z,3.35
2018-04-30T19:43:06.837Z,3.54
2018-04-30T19:48:57.760Z,2.74
2018-04-30T19:54:48.599Z,2.78
2018-04-30T20:00:39.461Z,3.17
2018-04-30T20:06:30.237Z,2.65
2018-04-30T20:12:21.121Z,2.89
2018-04-30T20:18:12.029Z,3.21
2018-04-30T20:24:02.819Z,2.97
2018-04-30T20:29:53.726Z,2.44
2018-04-30T20:35:44.500Z,4.2
2018-04-30T20:41:35.369Z,2.54
2018-04-30T20:47:26.205Z,3.13
2018-04-30T20:53:17.031Z,3.18
2018-04-30T20:59:07.886Z,3.28
2018-04-30T21:04:58.721Z,3.49
2018-04-30T21:10:49.591Z,3.04
2018-04-30T21:16:40.404Z,3.3
2018-04-30T21:22:31.293Z,3.73
2018-04-30T21:28:22.120Z,4.85
2018-04-30T21:34:12.934Z,4.42
2018-04-30T21:40:03.814Z,3.62
2018-04-30T21:45:54.631Z,3.86
2018-04-30T21:51:45.479Z,4.07
2018-04-30T21:57:36.315Z,4.09
2018-04-30T22:03:27.148Z,4.31
2018-04-30T22:09:17.993Z,4.26
2018-04-30T22:15:08.803Z,4.98
2018-04-30T22:20:59.658Z,4.88
2018-04-30T22:26:50.510Z,4.31
2018-04-30T22:32:41.344Z,4.66
2018-04-30T22:38:32.177Z,4.17
2018-04-30T22:44:22.991Z,4.34
2018-04-30T22:50:13.840Z,3.95
2018-04-30T22:56:04.681Z,3.78
2018-04-30T23:01:55.533Z,3.63
2018-04-30T23:07:46.361Z,3.67
2018-04-30T23:13:37.207Z,3.33
2018-04-30T23:19:28.063Z,3.45
2018-04-30T23:25:18.851Z,4.02
2018-04-30T23:31:09.707Z,4.47
2018-04-30T23:37:00.579Z,3.41
2018-04-30T23:42:51.408Z,3.55
2018-04-30T23:48:42.229Z,4.14
2018-04-30T23:54:33.117Z,3.86
